Time;durP1;ratioP1;P1;durP2;ratioP2;P2;SDS_P1;SDS_P2;PMS_P1;PMS_P2;Temp;Humidity;BMP_temperature;BMP_pressure;BME280_temperature;BME280_humidity;BME280_pressure;Samples;Min_cycle;Max_cycle;Signal;HPM_P1;HPM_P2
2022/11/04 00:00:25;;;;;;;;;60.25;47.00;;;;;17.25;56.03;99089.13;4978999;28;9636;-84
2022/11/04 00:03:17;;;;;;;;;57.25;46.50;;;;;17.31;55.76;99090.69;4978080;28;8938;-81
2022/11/04 00:05:46;;;;;;;;;56.75;45.25;;;;;17.33;55.54;99084.47;4976739;28;8879;-85
2022/11/04 00:08:26;;;;;;;;;60.25;47.50;;;;;17.33;55.17;99080.94;4965864;28;8865;-84
2022/11/04 00:13:43;;;;;;;;;57.25;44.50;;;;;17.30;54.89;99094.25;4996572;28;8995;-87
2022/11/04 00:19:00;;;;;;;;;51.25;41.25;;;;;17.43;54.14;99082.34;4977644;28;8840;-85
2022/11/04 00:30:10;;;;;;;;;51.50;40.25;;;;;17.59;53.57;99068.59;4839444;29;8895;-84
2022/11/04 00:35:25;;;;;;;;;48.50;39.50;;;;;17.69;52.92;99068.22;4839121;29;8963;-83
2022/11/04 00:37:54;;;;;;;;;44.00;38.25;;;;;17.84;52.46;99073.81;4844028;29;8865;-83
2022/11/04 00:40:25;;;;;;;;;48.25;38.50;;;;;17.81;51.96;99069.53;4874831;29;8904;-87
2022/11/04 00:42:54;;;;;;;;;48.75;38.75;;;;;17.94;51.56;99059.41;4894950;29;8989;-84
2022/11/04 00:45:24;;;;;;;;;48.75;37.25;;;;;18.01;51.57;99065.28;4866881;29;8871;-82
2022/11/04 00:47:53;;;;;;;;;47.00;38.00;;;;;17.71;52.28;99069.03;4881786;29;8883;-82
2022/11/04 00:50:22;;;;;;;;;48.75;40.75;;;;;17.90;51.53;99058.66;4913464;29;8889;-82
2022/11/04 00:52:50;;;;;;;;;50.75;42.25;;;;;18.01;51.18;99063.50;4913247;29;8887;-83
2022/11/04 00:55:20;;;;;;;;;48.50;41.00;;;;;17.87;51.63;99057.91;4921547;28;8951;-79
2022/11/04 00:57:50;;;;;;;;;49.00;39.75;;;;;17.90;51.71;99060.41;4973673;28;8883;-83
2022/11/04 01:00:20;;;;;;;;;49.25;38.00;;;;;17.68;52.07;99057.72;4957323;28;8879;-83
2022/11/04 01:02:48;;;;;;;;;49.00;38.75;;;;;17.59;52.15;99055.44;4993885;28;8867;-83
2022/11/04 01:05:17;;;;;;;;;52.25;41.25;;;;;17.68;52.33;99052.44;4944228;28;8854;-83
2022/11/04 01:07:46;;;;;;;;;50.50;40.50;;;;;17.83;51.84;99043.94;5005925;28;8923;-85
2022/11/04 01:10:15;;;;;;;;;47.75;40.75;;;;;17.98;51.83;99046.97;5015317;28;8874;-84
2022/11/04 01:12:47;;;;;;;;;49.75;41.50;;;;;18.02;51.57;99040.66;4994889;28;8857;-83
2022/11/04 01:15:18;;;;;;;;;55.25;43.75;;;;;18.01;51.30;99039.75;4996598;28;8885;-81
2022/11/04 01:17:47;;;;;;;;;51.75;42.50;;;;;17.85;51.63;99047.41;5005403;28;8855;-85
2022/11/04 01:20:17;;;;;;;;;52.50;44.25;;;;;17.95;51.26;99045.28;5003473;28;8876;-87
2022/11/04 01:22:46;;;;;;;;;47.25;38.75;;;;;17.80;51.66;99041.41;5031695;28;8883;-84
2022/11/04 01:25:16;;;;;;;;;50.50;42.50;;;;;17.83;51.79;99036.03;5048257;28;8990;-84
2022/11/04 01:27:45;;;;;;;;;50.50;41.75;;;;;17.75;51.83;99035.47;5013593;28;8956;-83
2022/11/04 01:30:15;;;;;;;;;49.00;40.50;;;;;17.78;51.75;99030.06;5045545;28;8847;-84
2022/11/04 01:32:45;;;;;;;;;51.25;41.00;;;;;17.89;51.35;99025.28;5030180;28;8872;-84
2022/11/04 01:35:15;;;;;;;;;51.00;42.25;;;;;17.93;51.29;99020.75;5038256;28;8847;-82
2022/11/04 01:37:44;;;;;;;;;52.75;42.25;;;;;17.93;51.25;99010.19;5029739;28;8855;-81
2022/11/04 01:40:13;;;;;;;;;56.00;46.00;;;;;18.04;51.01;99012.41;5046733;28;8879;-84
2022/11/04 01:42:42;;;;;;;;;49.75;42.00;;;;;18.03;50.86;99015.97;5047708;28;8974;-83
2022/11/04 01:45:15;;;;;;;;;54.00;44.75;;;;;18.05;50.67;99015.00;5030721;28;8947;-87
2022/11/04 01:47:50;;;;;;;;;49.75;40.00;;;;;18.07;50.74;99001.72;5037982;28;8913;-83
2022/11/04 01:50:22;;;;;;;;;54.25;43.25;;;;;18.02;50.57;99004.56;5049771;28;8869;-83
2022/11/04 01:52:57;;;;;;;;;52.50;43.00;;;;;18.06;50.45;99010.56;5047835;28;8867;-85
2022/11/04 01:55:32;;;;;;;;;39.00;34.00;;;;;17.82;51.18;98993.91;5036059;28;8840;-85
2022/11/04 01:58:09;;;;;;;;;48.50;40.50;;;;;17.92;50.80;99004.06;5023474;28;8855;-81
2022/11/04 02:00:59;;;;;;;;;50.25;42.00;;;;;17.97;50.63;98995.94;5001970;28;8926;-82
2022/11/04 02:03:34;;;;;;;;;50.00;42.00;;;;;18.02;50.72;98991.38;5037704;28;9720;-83
2022/11/04 02:06:04;;;;;;;;;48.50;38.50;;;;;17.99;50.58;98987.97;4998128;28;8864;-82
2022/11/04 02:08:35;;;;;;;;;49.00;39.25;;;;;17.91;50.32;98983.00;5018947;28;8951;-84
2022/11/04 02:11:05;;;;;;;;;49.75;40.00;;;;;17.76;51.03;98981.81;4985194;28;8834;-82
2022/11/04 02:13:35;;;;;;;;;50.50;42.25;;;;;17.83;51.22;98983.28;5022337;28;8984;-83
2022/11/04 02:16:13;;;;;;;;;50.75;42.75;;;;;17.96;50.68;98980.19;5031557;28;8943;-83
2022/11/04 02:19:07;;;;;;;;;51.50;41.25;;;;;18.01;50.59;98973.81;5027247;28;8883;-84
2022/11/04 02:22:03;;;;;;;;;54.25;41.00;;;;;18.03;50.52;98973.75;5044521;28;8848;-85
2022/11/04 02:25:03;;;;;;;;;49.50;40.75;;;;;18.05;50.65;98964.88;5042605;28;8993;-83
2022/11/04 02:27:57;;;;;;;;;50.75;42.00;;;;;17.98;50.51;98952.84;5013726;28;8902;-82
2022/11/04 02:30:35;;;;;;;;;53.75;43.25;;;;;17.86;50.54;98961.22;5011130;28;8969;-81
2022/11/04 02:33:18;;;;;;;;;53.75;43.00;;;;;17.83;50.90;98954.28;5029348;28;8852;-81
2022/11/04 02:35:57;;;;;;;;;53.25;43.00;;;;;17.73;51.40;98952.91;5026383;28;8914;-84
2022/11/04 02:38:37;;;;;;;;;53.75;43.75;;;;;17.66;51.45;98940.91;4996956;28;8886;-84
2022/11/04 02:41:17;;;;;;;;;52.25;42.25;;;;;17.58;51.81;98935.94;5005546;28;8873;-82
2022/11/04 02:44:00;;;;;;;;;54.00;43.25;;;;;17.62;51.55;98937.53;4976661;28;8866;-85
2022/11/04 02:46:35;;;;;;;;;52.25;43.50;;;;;17.58;51.27;98925.38;5025372;28;8887;-81
2022/11/04 02:49:10;;;;;;;;;50.00;41.00;;;;;17.46;51.81;98929.34;4998666;28;8844;-84
2022/11/04 02:51:44;;;;;;;;;29.75;24.50;;;;;17.34;52.30;98924.56;5033038;28;8840;-83
2022/11/04 02:54:21;;;;;;;;;55.25;43.25;;;;;17.32;52.10;98927.25;5026872;28;8898;-82
2022/11/04 02:56:52;;;;;;;;;52.25;42.75;;;;;17.36;52.14;98922.72;5013038;28;8832;-85
2022/11/04 02:59:26;;;;;;;;;58.00;43.75;;;;;17.34;51.54;98925.41;5062553;28;8849;-82
2022/11/04 03:02:01;;;;;;;;;50.50;41.00;;;;;17.15;52.11;98925.22;5032074;28;9582;-81
2022/11/04 03:04:34;;;;;;;;;50.50;40.00;;;;;17.28;52.16;98927.44;5035963;28;8889;-84
2022/11/04 03:07:08;;;;;;;;;51.25;41.75;;;;;17.35;51.68;98926.25;4997448;28;8948;-83
2022/11/04 03:09:41;;;;;;;;;49.25;41.00;;;;;17.30;51.77;98929.06;4994400;28;8869;-83
2022/11/04 03:12:15;;;;;;;;;49.75;38.50;;;;;17.29;51.62;98934.41;4973900;28;8850;-83
2022/11/04 03:14:49;;;;;;;;;46.50;39.25;;;;;17.27;51.92;98933.59;4989398;28;8969;-82
2022/11/04 03:17:27;;;;;;;;;46.25;39.00;;;;;17.34;51.45;98937.72;4991327;28;8884;-82
2022/11/04 03:19:58;;;;;;;;;50.00;40.25;;;;;17.24;51.21;98936.34;4991529;28;8908;-80
2022/11/04 03:22:30;;;;;;;;;49.00;39.75;;;;;17.42;51.18;98932.16;4974438;28;8943;-82
2022/11/04 03:25:02;;;;;;;;;46.75;38.00;;;;;17.51;50.98;98932.66;4975803;28;9654;-83
2022/11/04 03:27:41;;;;;;;;;46.75;37.50;;;;;17.61;50.49;98919.13;4976949;28;8896;-80
2022/11/04 03:30:14;;;;;;;;;47.50;38.75;;;;;17.61;50.45;98925.25;4987204;28;8846;-82
2022/11/04 03:32:59;;;;;;;;;51.75;43.25;;;;;17.66;50.37;98920.66;4996691;28;8899;-83
2022/11/04 03:35:29;;;;;;;;;46.00;38.00;;;;;17.58;50.39;98920.09;5050558;28;8863;-82
2022/11/04 03:37:58;;;;;;;;;42.00;37.25;;;;;17.47;50.90;98919.66;5008068;28;8875;-82
2022/11/04 03:40:28;;;;;;;;;52.50;41.75;;;;;17.51;50.58;98924.75;5018410;28;8863;-81
2022/11/04 03:43:03;;;;;;;;;47.25;40.00;;;;;17.43;51.12;98932.09;5022811;28;8973;-81
2022/11/04 03:45:33;;;;;;;;;50.50;39.50;;;;;17.39;51.36;98917.34;5011367;28;8848;-83
2022/11/04 03:48:24;;;;;;;;;50.25;41.25;;;;;17.37;51.36;98924.41;5007630;28;8867;-81
2022/11/04 03:50:53;;;;;;;;;41.00;35.50;;;;;16.91;52.71;98927.00;5019096;28;8886;-83
2022/11/04 03:53:25;;;;;;;;;48.50;39.00;;;;;17.09;51.71;98925.47;5025339;28;8978;-82
2022/11/04 03:56:20;;;;;;;;;48.50;38.75;;;;;17.31;51.28;98914.13;5021588;28;8863;-83
2022/11/04 03:59:05;;;;;;;;;49.75;41.75;;;;;17.31;50.86;98914.13;5027952;28;8860;-82
2022/11/04 04:01:44;;;;;;;;;48.25;38.25;;;;;17.31;51.35;98907.06;5010072;28;8871;-83
2022/11/04 04:04:21;;;;;;;;;46.50;38.25;;;;;17.31;50.97;98900.94;4991076;28;8872;-83
2022/11/04 04:06:54;;;;;;;;;53.00;42.25;;;;;17.19;51.27;98904.06;4997925;28;8844;-80
2022/11/04 04:09:29;;;;;;;;;45.75;38.00;;;;;17.23;51.46;98901.22;4983987;28;8906;-86
2022/11/04 04:12:07;;;;;;;;;48.50;40.75;;;;;17.11;52.11;98901.72;5014988;28;8848;-84
2022/11/04 04:14:43;;;;;;;;;52.50;40.25;;;;;17.10;51.84;98908.72;5010819;28;8883;-85
2022/11/04 04:17:19;;;;;;;;;48.25;41.00;;;;;17.11;52.04;98906.97;4979897;28;8878;-83
2022/11/04 04:19:54;;;;;;;;;52.25;42.50;;;;;17.02;51.75;98899.41;5016933;28;8890;-81
2022/11/04 04:22:28;;;;;;;;;46.75;36.75;;;;;16.95;51.86;98897.00;4965604;28;8893;-85
2022/11/04 04:27:49;;;;;;;;;46.50;40.75;;;;;17.02;52.06;98905.53;4997368;28;8892;-83
2022/11/04 04:30:18;;;;;;;;;50.50;41.50;;;;;17.09;51.93;98898.28;4997565;28;8857;-83
2022/11/04 04:32:52;;;;;;;;;53.00;43.50;;;;;17.03;52.29;98904.63;4997679;28;9052;-82
2022/11/04 04:35:42;;;;;;;;;48.50;40.75;;;;;17.15;51.67;98905.94;5015686;28;8860;-84
2022/11/04 04:46:48;;;;;;;;;48.75;38.75;;;;;17.14;51.32;98914.75;5043993;28;8864;-83
2022/11/04 04:49:17;;;;;;;;;51.00;42.25;;;;;16.84;52.05;98916.75;5036160;28;8861;-83
2022/11/04 04:51:48;;;;;;;;;47.00;38.50;;;;;17.08;51.41;98915.84;5017516;28;8867;-82
2022/11/04 04:54:17;;;;;;;;;49.25;38.00;;;;;17.12;51.33;98911.31;5058316;28;8841;-81
2022/11/04 04:56:45;;;;;;;;;51.00;38.50;;;;;17.22;50.73;98906.56;5043119;28;8991;-83
2022/11/04 04:59:15;;;;;;;;;62.75;51.00;;;;;17.24;50.83;98902.97;5051425;28;8867;-82
2022/11/04 05:01:44;;;;;;;;;54.25;43.75;;;;;17.20;51.07;98890.81;5053026;28;8881;-83
2022/11/04 05:04:13;;;;;;;;;52.25;38.75;;;;;17.11;50.82;98876.22;5052285;28;8861;-83
2022/11/04 05:06:41;;;;;;;;;46.25;37.25;;;;;17.06;50.94;98875.53;5052668;28;8856;-82
2022/11/04 05:09:14;;;;;;;;;48.00;39.00;;;;;17.07;51.31;98871.97;5057256;28;8868;-84
2022/11/04 05:11:42;;;;;;;;;50.75;42.00;;;;;17.02;51.35;98876.56;5047551;28;8852;-81
2022/11/04 05:14:12;;;;;;;;;47.75;39.00;;;;;16.98;51.61;98872.34;5055502;28;8907;-83
2022/11/04 05:16:42;;;;;;;;;48.25;40.75;;;;;16.94;51.38;98874.22;5066404;28;8862;-84
2022/11/04 05:19:11;;;;;;;;;49.50;39.50;;;;;16.90;51.53;98884.91;5072695;28;8854;-84
2022/11/04 05:21:40;;;;;;;;;48.75;39.50;;;;;16.92;51.48;98883.09;5073612;28;8857;-85
2022/11/04 05:24:08;;;;;;;;;45.75;36.00;;;;;16.95;50.92;98878.56;5070755;28;8869;-84
2022/11/04 05:26:39;;;;;;;;;44.75;38.00;;;;;17.04;51.03;98877.34;5053271;28;8878;-85
2022/11/04 05:29:09;;;;;;;;;47.00;38.00;;;;;17.05;50.86;98884.34;5065959;28;8837;-82
2022/11/04 05:31:38;;;;;;;;;46.25;38.75;;;;;17.12;50.20;98880.56;5047153;28;8861;-82
2022/11/04 05:34:06;;;;;;;;;52.50;41.25;;;;;17.10;50.92;98885.03;5047584;28;8897;-82
2022/11/04 05:36:36;;;;;;;;;46.00;38.00;;;;;17.11;50.78;98883.28;5047743;28;8855;-82
2022/11/04 05:39:05;;;;;;;;;51.25;38.75;;;;;17.07;51.46;98879.00;5069904;28;8855;-82
2022/11/04 05:41:34;;;;;;;;;51.50;42.75;;;;;17.10;51.13;98876.28;5059041;28;8857;-84
2022/11/04 05:44:08;;;;;;;;;53.25;43.75;;;;;17.13;50.83;98884.06;5050180;28;9630;-83
2022/11/04 05:46:37;;;;;;;;;46.75;39.75;;;;;17.11;51.21;98884.13;4947856;28;8851;-87
2022/11/04 05:49:06;;;;;;;;;49.25;41.00;;;;;17.15;50.66;98877.81;5045268;28;8872;-84
2022/11/04 05:51:36;;;;;;;;;48.00;41.75;;;;;17.19;50.57;98882.97;5046429;28;8943;-84
2022/11/04 05:54:05;;;;;;;;;53.25;41.50;;;;;17.22;50.58;98881.09;5036714;28;8868;-84
2022/11/04 05:56:34;;;;;;;;;52.50;42.50;;;;;17.29;50.17;98881.69;5043106;28;8856;-83
2022/11/04 05:59:08;;;;;;;;;46.00;39.00;;;;;17.25;50.64;98890.63;4995086;28;8860;-85
2022/11/04 06:01:39;;;;;;;;;50.50;39.50;;;;;17.28;50.37;98891.38;5007773;28;8895;-85
2022/11/04 06:04:16;;;;;;;;;53.00;42.00;;;;;17.45;49.71;98893.38;5046441;28;8876;-85
2022/11/04 06:06:45;;;;;;;;;53.00;42.50;;;;;17.48;49.71;98893.22;5034148;28;8864;-84
2022/11/04 06:09:14;;;;;;;;;52.00;42.00;;;;;17.53;49.96;98893.06;5016323;28;8896;-82
2022/11/04 06:11:44;;;;;;;;;47.75;39.00;;;;;17.52;50.11;98894.84;5047070;28;8865;-88
2022/11/04 06:14:14;;;;;;;;;52.50;42.50;;;;;17.51;49.92;98884.34;5049438;28;8956;-83
2022/11/04 06:16:46;;;;;;;;;53.25;42.50;;;;;17.36;50.18;98880.53;5031078;28;8949;-84
2022/11/04 06:19:15;;;;;;;;;49.75;41.25;;;;;17.37;50.31;98882.25;5019624;28;9622;-82
2022/11/04 06:21:46;;;;;;;;;49.00;40.75;;;;;17.39;50.30;98883.06;5010401;28;8939;-84
2022/11/04 06:24:15;;;;;;;;;52.50;42.75;;;;;17.38;50.26;98888.41;5014252;28;8902;-84
2022/11/04 06:26:44;;;;;;;;;51.50;42.00;;;;;17.37;50.36;98889.28;5052630;28;8850;-83
2022/11/04 06:29:14;;;;;;;;;52.75;43.25;;;;;17.46;49.88;98891.56;5011881;28;8992;-85
2022/11/04 06:31:43;;;;;;;;;49.50;41.00;;;;;17.48;49.85;98893.22;5065880;28;8866;-84
2022/11/04 06:34:12;;;;;;;;;55.00;42.50;;;;;17.47;49.71;98895.94;5047116;28;8908;-84
2022/11/04 06:36:40;;;;;;;;;53.25;43.25;;;;;17.46;49.83;98895.06;5018639;28;8860;-84
2022/11/04 06:39:09;;;;;;;;;46.00;39.50;;;;;17.37;50.24;98894.56;5050045;28;8874;-84
2022/11/04 06:41:40;;;;;;;;;51.75;41.00;;;;;17.41;50.28;98902.31;5032420;28;9364;-86
2022/11/04 06:44:11;;;;;;;;;49.25;41.50;;;;;17.52;49.68;98896.59;5026159;28;8845;-84
2022/11/04 06:46:42;;;;;;;;;51.50;42.00;;;;;17.38;50.60;98891.88;5031302;28;8975;-87
2022/11/04 06:49:14;;;;;;;;;50.50;42.50;;;;;17.34;50.47;98895.56;4995410;28;9368;-85
2022/11/04 06:51:44;;;;;;;;;54.00;43.50;;;;;17.34;50.69;98893.78;5020283;28;8894;-84
2022/11/04 06:54:14;;;;;;;;;56.50;45.50;;;;;17.38;50.76;98897.16;5032661;28;8901;-81
2022/11/04 06:56:43;;;;;;;;;50.25;42.25;;;;;17.37;50.50;98882.25;5032843;28;8874;-86
2022/11/04 06:59:16;;;;;;;;;49.25;40.75;;;;;17.24;51.24;98884.53;5031557;28;8854;-84
2022/11/04 07:01:49;;;;;;;;;52.00;43.00;;;;;17.23;50.91;98866.13;5039025;28;8965;-87
2022/11/04 07:04:18;;;;;;;;;49.50;42.75;;;;;17.28;51.02;98885.25;5025261;28;8853;-83
2022/11/04 07:07:07;;;;;;;;;53.25;43.25;;;;;17.40;50.49;98871.59;5010479;28;9024;-82
2022/11/04 07:09:36;;;;;;;;;52.25;41.50;;;;;17.45;50.19;98879.34;5018614;28;8866;-82
2022/11/04 07:12:05;;;;;;;;;45.75;39.75;;;;;17.54;50.08;98868.41;5033540;28;8830;-85
2022/11/04 07:14:34;;;;;;;;;47.50;39.00;;;;;17.66;49.96;98869.72;5008300;28;9007;-85
2022/11/04 07:17:06;;;;;;;;;52.50;43.50;;;;;17.65;49.71;98870.63;4993108;28;8890;-83
2022/11/04 07:19:35;;;;;;;;;52.75;43.00;;;;;17.74;49.68;98870.25;4997272;28;8959;-85
2022/11/04 07:22:07;;;;;;;;;52.50;41.75;;;;;17.90;49.46;98867.84;5004026;28;8849;-86
2022/11/04 07:24:36;;;;;;;;;44.50;38.50;;;;;18.04;48.50;98862.88;5026248;28;9094;-83
2022/11/04 07:27:06;;;;;;;;;44.00;36.00;;;;;18.21;48.36;98871.88;5003223;28;8924;-85
2022/11/04 07:29:34;;;;;;;;;51.25;41.50;;;;;18.36;48.06;98878.28;5021812;28;8966;-82
2022/11/04 07:32:06;;;;;;;;;54.00;42.00;;;;;18.47;47.65;98873.38;5017208;28;8883;-86
2022/11/04 07:34:34;;;;;;;;;42.00;35.50;;;;;18.52;47.60;98871.38;5013248;28;9016;-85
2022/11/04 07:37:04;;;;;;;;;48.25;40.75;;;;;18.56;47.39;98872.09;4999575;28;8875;-86
2022/11/04 07:39:32;;;;;;;;;44.67;37.67;;;;;18.54;47.06;98863.41;5017022;28;9575;-84
2022/11/04 07:42:01;;;;;;;;;47.00;39.25;;;;;18.53;47.27;98859.91;5002862;28;8867;-85
2022/11/04 07:44:30;;;;;;;;;44.50;38.25;;;;;18.51;47.34;98856.47;5034333;28;8848;-86
2022/11/04 07:46:59;;;;;;;;;47.00;39.25;;;;;18.50;47.54;98860.03;5018947;28;8854;-82
2022/11/04 07:49:30;;;;;;;;;48.25;39.00;;;;;18.54;47.31;98860.75;5017005;28;8965;-82
2022/11/04 07:51:59;;;;;;;;;48.25;40.75;;;;;18.51;47.50;98859.13;5016324;28;9062;-83
2022/11/04 07:54:28;;;;;;;;;49.25;40.75;;;;;18.55;47.68;98862.50;5038970;28;8849;-84
2022/11/04 07:56:58;;;;;;;;;47.50;39.75;;;;;18.49;47.74;98850.41;5045717;28;8860;-82
2022/11/04 07:59:27;;;;;;;;;49.00;39.75;;;;;18.45;48.00;98848.81;5035916;28;8861;-85
2022/11/04 08:01:56;;;;;;;;;48.75;39.75;;;;;18.45;48.17;98857.59;5064571;28;9002;-82
2022/11/04 08:04:25;;;;;;;;;50.25;42.00;;;;;18.43;48.17;98848.03;5066576;28;8845;-84
2022/11/04 08:06:56;;;;;;;;;42.75;35.25;;;;;18.42;47.90;98846.31;5053425;28;8964;-84
2022/11/04 08:09:24;;;;;;;;;49.25;40.50;;;;;18.41;47.96;98845.47;5015958;28;8865;-83
2022/11/04 08:11:54;;;;;;;;;48.50;39.75;;;;;18.37;48.18;98837.72;5060351;28;8852;-84
2022/11/04 08:14:22;;;;;;;;;45.25;37.50;;;;;18.40;48.06;98835.81;5052445;28;8843;-83
2022/11/04 08:16:51;;;;;;;;;47.75;39.25;;;;;18.42;48.03;98833.13;5021689;28;8844;-84
2022/11/04 08:19:20;;;;;;;;;48.75;37.75;;;;;18.42;48.10;98831.31;5042791;28;8860;-84
2022/11/04 08:21:51;;;;;;;;;42.75;37.25;;;;;18.48;48.01;98824.91;5069905;28;8871;-84
2022/11/04 08:24:21;;;;;;;;;47.00;38.00;;;;;18.58;47.92;98822.72;5014807;28;8894;-86
2022/11/04 08:26:51;;;;;;;;;48.00;39.00;;;;;18.72;47.73;98824.75;4998644;28;8862;-85
2022/11/04 08:29:19;;;;;;;;;46.50;38.75;;;;;18.80;47.87;98820.84;5003521;28;8844;-85
2022/11/04 08:31:49;;;;;;;;;46.75;39.00;;;;;18.84;47.75;98818.94;5022341;28;8846;-83
2022/11/04 08:34:17;;;;;;;;;44.75;39.00;;;;;19.01;47.52;98813.72;5015449;28;8956;-78
2022/11/04 08:36:47;;;;;;;;;50.50;40.75;;;;;19.02;47.70;98809.31;4987457;28;8901;-85
2022/11/04 08:39:16;;;;;;;;;48.00;40.25;;;;;19.03;47.32;98806.56;4995762;28;8899;-84
2022/11/04 08:41:49;;;;;;;;;51.25;40.75;;;;;19.12;47.18;98807.94;4972816;28;8905;-85
2022/11/04 08:44:21;;;;;;;;;52.75;43.25;;;;;19.19;47.04;98800.59;5003592;28;9001;-85
2022/11/04 08:46:50;;;;;;;;;51.25;42.00;;;;;19.17;47.23;98794.47;5000580;28;8894;-81
2022/11/04 08:49:19;;;;;;;;;48.25;39.75;;;;;19.20;46.89;98792.56;4997882;28;8870;-87
2022/11/04 08:51:55;;;;;;;;;51.25;42.75;;;;;19.06;47.24;98797.66;4977169;28;8908;-82
2022/11/04 08:54:25;;;;;;;;;47.00;40.75;;;;;19.13;47.08;98796.44;5014438;28;8838;-84
2022/11/04 08:56:56;;;;;;;;;47.50;39.50;;;;;19.18;47.05;98793.56;5026021;28;8873;-82
2022/11/04 08:59:24;;;;;;;;;48.25;39.75;;;;;19.33;46.54;98797.25;5056935;28;8856;-86
2022/11/04 09:01:54;;;;;;;;;51.75;41.00;;;;;19.40;46.32;98802.19;5055057;28;8860;-85
2022/11/04 09:04:24;;;;;;;;;49.00;39.50;;;;;19.48;46.15;98804.44;5055471;28;8845;-87
2022/11/04 09:06:55;;;;;;;;;47.75;40.75;;;;;19.69;45.79;98799.88;5009151;28;8842;-84
2022/11/04 09:09:25;;;;;;;;;49.75;39.75;;;;;19.81;45.58;98793.13;5056172;28;8918;-85
2022/11/04 09:11:57;;;;;;;;;46.75;36.00;;;;;20.01;45.04;98784.19;5044094;28;8891;-86
2022/11/04 09:14:27;;;;;;;;;46.00;36.50;;;;;20.14;44.54;98776.47;4998106;28;8872;-85
2022/11/04 09:16:56;;;;;;;;;49.25;40.00;;;;;20.28;44.21;98779.25;5072798;28;8849;-85
2022/11/04 09:19:25;;;;;;;;;43.75;37.00;;;;;20.41;43.65;98763.56;5050324;28;8865;-87
2022/11/04 09:21:54;;;;;;;;;47.00;36.75;;;;;20.53;43.08;98770.00;5033761;28;8879;-86
2022/11/04 09:24:23;;;;;;;;;38.75;33.50;;;;;20.77;42.77;98768.69;5050126;28;8951;-88
2022/11/04 09:26:52;;;;;;;;;44.25;36.00;;;;;20.93;42.33;98760.75;5026091;28;8907;-90
2022/11/04 09:29:23;;;;;;;;;44.25;35.50;;;;;21.13;41.98;98759.63;5068328;28;8875;-84
2022/11/04 09:31:52;;;;;;;;;45.00;38.50;;;;;21.32;41.54;98753.28;5034739;28;8864;-83
2022/11/04 09:34:23;;;;;;;;;46.25;39.75;;;;;21.36;41.48;98755.69;5043674;28;8859;-84
2022/11/04 09:36:55;;;;;;;;;32.00;26.00;;;;;21.45;41.61;98756.13;5039126;28;8899;-81
2022/11/04 09:39:24;;;;;;;;;46.50;38.50;;;;;21.67;41.42;98758.38;5046802;28;8849;-80
2022/11/04 09:42:22;;;;;;;;;49.25;39.50;;;;;21.85;41.06;98744.00;5043601;28;8899;-83
2022/11/04 09:44:58;;;;;;;;;49.00;39.75;;;;;21.82;41.17;98744.22;4970896;28;8960;-81
2022/11/04 09:47:50;;;;;;;;;48.25;40.75;;;;;21.95;41.07;98739.88;4974849;28;10126;-81
2022/11/04 09:50:23;;;;;;;;;46.75;38.25;;;;;22.03;40.94;98731.44;4956416;28;8873;-81
2022/11/04 09:52:57;;;;;;;;;50.50;40.50;;;;;22.21;40.79;98721.47;4972048;28;8877;-81
2022/11/04 09:55:32;;;;;;;;;47.00;39.50;;;;;22.38;40.45;98720.47;4971869;28;8876;-82
2022/11/04 09:58:02;;;;;;;;;46.75;38.00;;;;;22.45;39.98;98727.09;4969926;28;8870;-81
2022/11/04 10:00:37;;;;;;;;;48.50;41.00;;;;;22.73;39.92;98725.38;4968187;28;8890;-66
2022/11/04 10:03:23;;;;;;;;;45.75;37.75;;;;;22.89;39.33;98717.25;4985099;28;8867;-69
2022/11/04 10:06:07;;;;;;;;;51.25;41.50;;;;;22.94;39.30;98717.81;4984979;28;8915;-66
2022/11/04 10:08:49;;;;;;;;;43.50;37.25;;;;;23.09;38.93;98726.66;4985383;28;8894;-68
2022/11/04 10:11:28;;;;;;;;;50.75;40.50;;;;;23.28;38.82;98719.16;4987534;28;9019;-71
2022/11/04 10:14:16;;;;;;;;;40.25;35.25;;;;;23.29;38.38;98715.56;4944054;28;8863;-68
2022/11/04 10:17:02;;;;;;;;;35.25;33.25;;;;;23.30;38.23;98713.72;4996647;28;8875;-67
2022/11/04 10:19:46;;;;;;;;;39.75;35.00;;;;;23.34;38.60;98716.06;4985309;28;8852;-65
2022/11/04 10:22:27;;;;;;;;;46.75;36.25;;;;;23.42;37.95;98720.03;5018866;28;8866;-66
2022/11/04 10:25:08;;;;;;;;;41.25;34.00;;;;;23.61;37.29;98711.66;5044548;28;8848;-66
2022/11/04 10:27:41;;;;;;;;;39.50;35.25;;;;;23.67;37.46;98704.13;5048988;28;8966;-67
2022/11/04 10:30:16;;;;;;;;;40.50;33.75;;;;;23.90;37.26;98699.06;5029192;28;8890;-66
2022/11/04 10:32:57;;;;;;;;;37.25;33.25;;;;;24.04;37.16;98690.97;5027355;28;8867;-65
2022/11/04 10:35:34;;;;;;;;;35.25;32.75;;;;;24.05;36.54;98690.03;5027090;28;8936;-69
2022/11/04 10:38:16;;;;;;;;;32.00;31.00;;;;;24.19;36.23;98678.38;5042174;28;8895;-69
2022/11/04 10:40:48;;;;;;;;;36.00;30.80;;;;;24.20;35.63;98671.28;5049675;28;8853;-70
2022/11/04 10:43:24;;;;;;;;;35.75;31.75;;;;;24.30;35.67;98670.47;5047252;28;8965;-70
2022/11/04 10:46:07;;;;;;;;;37.75;33.50;;;;;24.49;35.13;98666.50;5012602;28;8922;-70
2022/11/04 10:48:43;;;;;;;;;36.00;31.50;;;;;24.43;35.20;98662.47;5000012;28;8864;-70
2022/11/04 10:51:12;;;;;;;;;40.75;34.25;;;;;24.42;35.42;98658.09;5030929;28;8877;-70
2022/11/04 10:53:41;;;;;;;;;38.25;32.00;;;;;24.58;35.23;98646.38;5042736;28;8953;-81
2022/11/04 10:56:23;;;;;;;;;43.00;35.50;;;;;24.70;35.21;98653.47;5055389;28;8898;-81
2022/11/04 10:58:55;;;;;;;;;38.00;34.25;;;;;24.52;34.66;98645.84;5055231;28;8857;-81
2022/11/04 11:01:27;;;;;;;;;37.25;34.25;;;;;24.57;35.28;98640.16;5052656;28;8928;-80
2022/11/04 11:03:57;;;;;;;;;43.25;33.75;;;;;24.62;34.76;98624.69;5018841;28;8864;-83
2022/11/04 11:06:30;;;;;;;;;40.00;35.00;;;;;24.54;35.02;98623.53;5069302;28;8944;-82
2022/11/04 11:09:12;;;;;;;;;41.25;33.25;;;;;24.61;35.00;98622.13;5069691;28;8857;-80
2022/11/04 11:11:46;;;;;;;;;36.50;34.00;;;;;24.54;34.94;98623.53;5050421;28;8928;-82
2022/11/04 11:14:20;;;;;;;;;41.25;34.50;;;;;24.61;35.06;98620.34;5034102;28;8868;-81
2022/11/04 11:16:49;;;;;;;;;42.50;36.25;;;;;24.44;35.47;98620.66;5017192;28;8869;-80
2022/11/04 11:19:21;;;;;;;;;44.50;37.00;;;;;24.42;35.63;98618.09;5032725;28;8942;-81
2022/11/04 11:21:52;;;;;;;;;44.25;37.75;;;;;24.49;35.74;98613.19;5038913;28;8841;-81
2022/11/04 11:24:23;;;;;;;;;45.00;38.25;;;;;24.43;35.58;98609.16;5017239;28;8865;-83
2022/11/04 11:26:55;;;;;;;;;48.00;38.00;;;;;24.51;35.80;98608.59;5003812;28;8967;-82
2022/11/04 11:29:27;;;;;;;;;45.25;37.75;;;;;24.62;35.51;98619.38;5016852;28;8867;-81
2022/11/04 11:31:59;;;;;;;;;43.25;37.50;;;;;24.65;34.75;98612.94;5029715;28;8880;-80
2022/11/04 11:34:33;;;;;;;;;46.00;37.00;;;;;24.74;35.28;98611.44;5011203;28;8942;-79
2022/11/04 11:37:04;;;;;;;;;45.25;36.00;;;;;24.76;34.62;98615.66;5036175;28;8877;-81
2022/11/04 11:39:35;;;;;;;;;48.50;40.25;;;;;24.77;35.33;98608.53;5032427;28;8884;-78
2022/11/04 11:42:08;;;;;;;;;41.75;35.00;;;;;24.78;34.77;98608.41;5056240;28;8832;-79
2022/11/04 11:44:58;;;;;;;;;48.00;38.00;;;;;24.84;35.02;98618.63;5036172;28;8882;-79
2022/11/04 11:47:40;;;;;;;;;50.75;40.25;;;;;24.99;34.72;98605.97;5032495;28;8861;-80
2022/11/04 11:50:17;;;;;;;;;47.00;38.00;;;;;25.03;34.77;98610.13;5023585;28;9006;-79
2022/11/04 11:52:47;;;;;;;;;41.50;36.25;;;;;24.94;34.96;98609.97;5006403;28;8921;-81
2022/11/04 11:55:20;;;;;;;;;43.00;36.50;;;;;25.04;34.98;98603.78;5052140;28;8906;-81
2022/11/04 11:57:59;;;;;;;;;44.00;36.25;;;;;25.13;34.70;98601.41;5032478;28;8942;-80
2022/11/04 12:00:52;;;;;;;;;38.25;34.75;;;;;25.05;34.04;98604.66;5050254;28;8883;-76
2022/11/04 12:03:39;;;;;;;;;42.75;35.25;;;;;25.04;34.22;98593.13;5062827;28;8910;-78
2022/11/04 12:06:41;;;;;;;;;36.25;33.50;;;;;25.17;34.04;98589.53;5054363;28;8859;-81
2022/11/04 12:09:40;;;;;;;;;40.50;34.75;;;;;25.21;33.97;98596.34;5051014;28;8856;-79
2022/11/04 12:12:24;;;;;;;;;37.75;33.00;;;;;25.35;34.15;98577.50;5056533;28;8855;-81
2022/11/04 12:15:12;;;;;;;;;31.75;29.00;;;;;25.21;33.38;98562.50;5090245;28;8846;-79
2022/11/04 12:17:56;;;;;;;;;38.00;33.75;;;;;25.38;33.20;98561.22;5072554;28;8962;-80
2022/11/04 12:20:45;;;;;;;;;36.25;33.50;;;;;25.15;32.88;98554.97;5046677;28;8881;-80